Time;durP1;ratioP1;P1;durP2;ratioP2;P2;SDS_P1;SDS_P2;PMS_P1;PMS_P2;Temp;Humidity;BMP_temperature;BMP_pressure;BME280_temperature;BME280_humidity;BME280_pressure;Samples;Min_cycle;Max_cycle;Signal;HPM_P1;HPM_P2
2023/04/26 01:41:17;;;;;;;;;;;;;;;;;;5303278;23;19930;-91
2023/04/26 01:43:43;;;;;;;;;;;;;;;;;;4981957;28;20084;-94
2023/04/26 01:46:10;;;;;;;;;;;;;;;;;;4980344;28;19926;-93
2023/04/26 01:48:45;;;;;;;;;;;;;;;;;;4995946;28;19945;-93
2023/04/26 01:51:11;;;;;;;;;;;;;;;;;;4995915;28;19925;-94
2023/04/26 01:53:40;;;;;;;;;;;;;;;;;;4998415;28;19922;-94
2023/04/26 01:56:09;;;;;;;;;;;;;;;;;;5016947;28;19928;-94
2023/04/26 02:01:26;;;;;;;;;;;;;;;;;;4990772;28;19968;-92
2023/04/26 02:03:55;;;;;;;;;;;;;;;;;;4979331;28;19925;-95
2023/04/26 02:06:21;;;;;;;;;;;;;;;;;;4979534;28;19926;-94
2023/04/26 02:08:48;;;;;;;;;;;;;;;;;;4979740;28;19921;-94
2023/04/26 02:11:16;;;;;;;;;;;;;;;;;;4983873;28;19928;-91
2023/04/26 02:13:42;;;;;;;;;;;;;;;;;;4995964;28;20288;-95
2023/04/26 02:16:08;;;;;;;;;;;;;;;;;;4995613;28;19929;-94
2023/04/26 02:18:34;;;;;;;;;;;;;;;;;;4995943;28;19921;-92
2023/04/26 02:24:13;;;;;;;;;;;;;;;;;;5023528;28;19980;-96
2023/04/26 05:26:00;;;;;;;;;;;;;;;;;;4975915;28;19929;-93
2023/04/26 05:31:47;;;;;;;;;;;;;;;;;;5215580;23;19932;-93
2023/04/26 05:34:13;;;;;;;;;;;;;;;;;;5009339;28;20372;-95
2023/04/26 05:36:39;;;;;;;;;;;;;;;;;;5004271;28;19968;-93
2023/04/26 05:39:06;;;;;;;;;;;;;;;;;;5006627;28;19921;-92
2023/04/26 05:41:32;;;;;;;;;;;;;;;;;;5008948;28;20368;-91
2023/04/26 05:43:58;;;;;;;;;;;;;;;;;;5006165;28;19928;-88
2023/04/26 05:46:24;;;;;;;;;;;;;;;;;;5005494;28;19933;-89
2023/04/26 05:48:50;;;;;;;;;;;;;;;;;;5006009;28;20280;-90
2023/04/26 05:51:16;;;;;;;;;;;;;;;;;;5005939;28;19921;-90
2023/04/26 05:53:42;;;;;;;;;;;;;;;;;;5004509;28;20325;-91
2023/04/26 05:56:08;;;;;;;;;;;;;;;;;;5022217;28;19921;-93
2023/04/26 05:58:34;;;;;;;;;;;;;;;;;;5005731;28;19932;-88
2023/04/26 06:01:00;;;;;;;;;;;;;;;;;;5022221;28;19971;-91
2023/04/26 06:03:26;;;;;;;;;;;;;;;;;;5005844;28;19967;-89
2023/04/26 06:05:52;;;;;;;;;;;;;;;;;;5005236;28;19925;-89
2023/04/26 06:08:18;;;;;;;;;;;;;;;;;;5020078;28;20368;-89
2023/04/26 06:10:45;;;;;;;;;;;;;;;;;;5003008;28;19975;-90
2023/04/26 06:13:11;;;;;;;;;;;;;;;;;;5005358;28;19929;-91
2023/04/26 06:15:37;;;;;;;;;;;;;;;;;;5003917;28;20408;-91
2023/04/26 06:18:03;;;;;;;;;;;;;;;;;;5005806;28;20011;-89
2023/04/26 06:20:29;;;;;;;;;;;;;;;;;;5021592;28;19922;-91
2023/04/26 06:22:55;;;;;;;;;;;;;;;;;;5005440;28;19928;-91
2023/04/26 06:25:21;;;;;;;;;;;;;;;;;;5019889;28;19921;-90
2023/04/26 06:27:47;;;;;;;;;;;;;;;;;;5000157;28;19932;-89
2023/04/26 06:30:13;;;;;;;;;;;;;;;;;;5019971;28;20375;-89
2023/04/26 06:32:39;;;;;;;;;;;;;;;;;;5005040;28;20377;-91
2023/04/26 06:35:05;;;;;;;;;;;;;;;;;;5006770;28;19921;-93
2023/04/26 06:37:31;;;;;;;;;;;;;;;;;;5009852;28;19935;-92
2023/04/26 06:39:57;;;;;;;;;;;;;;;;;;5025462;28;20015;-92
2023/04/26 06:42:23;;;;;;;;;;;;;;;;;;5010643;28;20408;-91
2023/04/26 06:44:49;;;;;;;;;;;;;;;;;;5025014;28;19936;-92
2023/04/26 06:47:14;;;;;;;;;;;;;;;;;;5007250;28;19929;-92
2023/04/26 06:49:41;;;;;;;;;;;;;;;;;;5009166;28;19921;-92
2023/04/26 06:52:07;;;;;;;;;;;;;;;;;;5010322;28;19975;-92
2023/04/26 06:54:33;;;;;;;;;;;;;;;;;;5007105;28;19929;-92
2023/04/26 06:56:59;;;;;;;;;;;;;;;;;;5009539;28;19936;-91
2023/04/26 06:59:25;;;;;;;;;;;;;;;;;;5009999;28;20387;-91
2023/04/26 07:01:51;;;;;;;;;;;;;;;;;;5024238;28;19921;-93
2023/04/26 07:04:19;;;;;;;;;;;;;;;;;;5007714;28;19929;-93
2023/04/26 07:06:45;;;;;;;;;;;;;;;;;;5025221;28;19932;-92
2023/04/26 07:09:11;;;;;;;;;;;;;;;;;;5008925;28;19921;-90
2023/04/26 07:11:37;;;;;;;;;;;;;;;;;;5008393;28;19921;-92
2023/04/26 07:14:03;;;;;;;;;;;;;;;;;;5007595;28;19929;-91
2023/04/26 07:16:29;;;;;;;;;;;;;;;;;;5024783;28;19996;-91
2023/04/26 07:18:57;;;;;;;;;;;;;;;;;;5022517;28;20221;-91
2023/04/26 07:21:23;;;;;;;;;;;;;;;;;;5008482;28;19925;-92
2023/04/26 07:23:48;;;;;;;;;;;;;;;;;;5008818;28;20345;-93
2023/04/26 07:26:14;;;;;;;;;;;;;;;;;;5008575;28;19978;-87
2023/04/26 07:28:40;;;;;;;;;;;;;;;;;;5023115;28;20365;-93
2023/04/26 07:31:06;;;;;;;;;;;;;;;;;;5007101;28;20012;-96
2023/04/26 07:33:32;;;;;;;;;;;;;;;;;;5005023;28;19956;-90
2023/04/26 07:36:00;;;;;;;;;;;;;;;;;;5017002;28;19940;-88
2023/04/26 07:38:26;;;;;;;;;;;;;;;;;;5024865;28;19928;-90
2023/04/26 07:40:52;;;;;;;;;;;;;;;;;;5017131;28;19921;-94
2023/04/26 07:43:18;;;;;;;;;;;;;;;;;;5017327;28;20349;-94
2023/04/26 07:45:44;;;;;;;;;;;;;;;;;;5021513;28;19932;-95
2023/04/26 07:48:10;;;;;;;;;;;;;;;;;;5015964;28;19948;-94
2023/04/26 07:50:36;;;;;;;;;;;;;;;;;;5015927;28;20346;-92
2023/04/26 07:53:01;;;;;;;;;;;;;;;;;;5016915;28;19921;-93
2023/04/26 07:55:27;;;;;;;;;;;;;;;;;;5017032;28;20104;-92
2023/04/26 07:57:53;;;;;;;;;;;;;;;;;;5017165;28;19975;-92
2023/04/26 08:00:21;;;;;;;;;;;;;;;;;;5016811;28;19975;-93
2023/04/26 08:02:47;;;;;;;;;;;;;;;;;;5016644;28;19921;-92
2023/04/26 08:05:13;;;;;;;;;;;;;;;;;;5017052;28;19921;-92
2023/04/26 08:07:39;;;;;;;;;;;;;;;;;;5015837;28;19972;-92
2023/04/26 08:10:05;;;;;;;;;;;;;;;;;;5016647;28;19960;-92
2023/04/26 08:12:31;;;;;;;;;;;;;;;;;;5016061;28;19928;-93
2023/04/26 08:14:56;;;;;;;;;;;;;;;;;;5019089;28;19928;-92
2023/04/26 08:17:22;;;;;;;;;;;;;;;;;;5016596;28;19927;-95
2023/04/26 08:19:48;;;;;;;;;;;;;;;;;;5016998;28;20018;-94
2023/04/26 08:22:14;;;;;;;;;;;;;;;;;;5019753;28;19925;-96
2023/04/26 08:27:33;;;;;;;;;;;;;;;;;;5012908;28;19925;-96
2023/04/26 08:29:59;;;;;;;;;;;;;;;;;;5017742;28;19966;-95
2023/04/26 08:32:25;;;;;;;;;;;;;;;;;;5016466;28;19925;-95
2023/04/26 08:34:51;;;;;;;;;;;;;;;;;;5026594;28;19921;-96
2023/04/26 08:37:34;;;;;;;;;;;;;;;;;;5021785;28;19921;-96
2023/04/26 08:40:00;;;;;;;;;;;;;;;;;;5018910;28;19928;-95
2023/04/26 08:42:35;;;;;;;;;;;;;;;;;;5020682;28;19921;-93
2023/04/26 08:45:01;;;;;;;;;;;;;;;;;;5004083;28;19944;-95
2023/04/26 08:47:28;;;;;;;;;;;;;;;;;;5016453;28;20001;-95
2023/04/26 08:49:58;;;;;;;;;;;;;;;;;;4996582;28;19925;-94
2023/04/26 08:52:24;;;;;;;;;;;;;;;;;;4998473;28;20373;-94
2023/04/26 08:54:50;;;;;;;;;;;;;;;;;;4995941;28;19976;-94
2023/04/26 08:57:16;;;;;;;;;;;;;;;;;;4999339;28;20235;-94
2023/04/26 08:59:43;;;;;;;;;;;;;;;;;;5010402;28;19921;-93
2023/04/26 09:02:09;;;;;;;;;;;;;;;;;;5007537;28;19921;-94
2023/04/26 09:04:35;;;;;;;;;;;;;;;;;;4999345;28;19936;-94
2023/04/26 09:07:00;;;;;;;;;;;;;;;;;;5014260;28;20044;-94
2023/04/26 09:09:27;;;;;;;;;;;;;;;;;;4996621;28;19928;-96
2023/04/26 09:11:53;;;;;;;;;;;;;;;;;;4999464;28;19928;-94
2023/04/26 09:14:19;;;;;;;;;;;;;;;;;;5012315;28;20006;-92
2023/04/26 09:16:44;;;;;;;;;;;;;;;;;;4998902;28;19964;-95
2023/04/26 09:19:10;;;;;;;;;;;;;;;;;;5002093;28;19928;-95
2023/04/26 09:21:36;;;;;;;;;;;;;;;;;;5017201;28;19928;-96
2023/04/26 09:24:03;;;;;;;;;;;;;;;;;;5014946;28;19964;-93
2023/04/26 09:26:29;;;;;;;;;;;;;;;;;;4999062;28;19925;-92
2023/04/26 09:28:55;;;;;;;;;;;;;;;;;;4996396;28;19925;-93
2023/04/26 09:31:21;;;;;;;;;;;;;;;;;;4996356;28;19928;-92
2023/04/26 09:33:47;;;;;;;;;;;;;;;;;;4996918;28;19944;-93
2023/04/26 09:36:13;;;;;;;;;;;;;;;;;;4996206;28;19922;-93
2023/04/26 09:38:39;;;;;;;;;;;;;;;;;;4980452;28;19922;-93
2023/04/26 09:41:05;;;;;;;;;;;;;;;;;;4980128;28;19922;-93
2023/04/26 09:43:32;;;;;;;;;;;;;;;;;;4979695;28;19930;-92
2023/04/26 09:45:58;;;;;;;;;;;;;;;;;;4995392;28;19937;-91
2023/04/26 09:48:29;;;;;;;;;;;;;;;;;;4979387;28;20355;-91
2023/04/26 09:50:55;;;;;;;;;;;;;;;;;;4990670;28;19921;-93
2023/04/26 09:53:21;;;;;;;;;;;;;;;;;;5015717;28;19945;-92
2023/04/26 09:55:48;;;;;;;;;;;;;;;;;;5019572;28;19924;-93
2023/04/26 09:58:15;;;;;;;;;;;;;;;;;;5014276;28;20256;-93
2023/04/26 10:00:41;;;;;;;;;;;;;;;;;;4995204;28;19925;-93
2023/04/26 10:03:07;;;;;;;;;;;;;;;;;;5012525;28;20001;-93
2023/04/26 10:05:33;;;;;;;;;;;;;;;;;;4999539;28;20031;-94
2023/04/26 10:07:59;;;;;;;;;;;;;;;;;;5019006;28;20376;-94
2023/04/26 10:10:26;;;;;;;;;;;;;;;;;;5019465;28;19932;-94
2023/04/26 10:12:52;;;;;;;;;;;;;;;;;;5021406;28;19929;-94
2023/04/26 10:15:18;;;;;;;;;;;;;;;;;;5022463;28;20009;-93
2023/04/26 10:17:44;;;;;;;;;;;;;;;;;;5005195;28;20481;-93
2023/04/26 10:20:10;;;;;;;;;;;;;;;;;;5010240;28;19921;-95
2023/04/26 10:22:35;;;;;;;;;;;;;;;;;;5005569;28;19928;-94
2023/04/26 10:25:01;;;;;;;;;;;;;;;;;;4998343;28;20361;-94
2023/04/26 10:27:27;;;;;;;;;;;;;;;;;;5004028;28;19925;-93
2023/04/26 10:29:53;;;;;;;;;;;;;;;;;;5020963;28;20015;-94
2023/04/26 10:32:19;;;;;;;;;;;;;;;;;;5018141;28;19926;-94
2023/04/26 10:34:46;;;;;;;;;;;;;;;;;;4985433;28;19936;-93
2023/04/26 10:37:12;;;;;;;;;;;;;;;;;;5002791;28;20284;-96
2023/04/26 10:39:38;;;;;;;;;;;;;;;;;;4986636;28;20016;-95
2023/04/26 10:42:04;;;;;;;;;;;;;;;;;;4985629;28;19925;-94
2023/04/26 10:44:30;;;;;;;;;;;;;;;;;;4995717;28;19945;-95
2023/04/26 10:46:56;;;;;;;;;;;;;;;;;;4999416;28;19979;-88
2023/04/26 10:49:22;;;;;;;;;;;;;;;;;;4991426;28;19929;-91
2023/04/26 10:51:48;;;;;;;;;;;;;;;;;;5020157;28;19921;-92
2023/04/26 10:54:14;;;;;;;;;;;;;;;;;;4984822;28;19931;-93
2023/04/26 10:56:41;;;;;;;;;;;;;;;;;;4985880;28;20031;-93
2023/04/26 10:59:07;;;;;;;;;;;;;;;;;;4971721;28;19932;-93
2023/04/26 11:01:33;;;;;;;;;;;;;;;;;;4998035;28;19921;-93
2023/04/26 11:03:59;;;;;;;;;;;;;;;;;;5016961;28;19929;-93
2023/04/26 11:06:25;;;;;;;;;;;;;;;;;;4983939;28;20312;-92
2023/04/26 11:08:52;;;;;;;;;;;;;;;;;;4981436;28;19922;-94
2023/04/26 11:11:21;;;;;;;;;;;;;;;;;;5024997;28;19925;-95
2023/04/26 11:13:50;;;;;;;;;;;;;;;;;;5010723;28;19928;-94
2023/04/26 11:16:25;;;;;;;;;;;;;;;;;;5045234;28;19921;-96
2023/04/26 11:18:51;;;;;;;;;;;;;;;;;;5018278;28;20240;-92
2023/04/26 11:21:18;;;;;;;;;;;;;;;;;;4996027;28;19921;-93
2023/04/26 11:23:44;;;;;;;;;;;;;;;;;;4986174;28;19951;-94
2023/04/26 11:26:12;;;;;;;;;;;;;;;;;;5023487;28;19922;-93
2023/04/26 11:28:38;;;;;;;;;;;;;;;;;;5029035;28;20252;-93
2023/04/26 11:31:04;;;;;;;;;;;;;;;;;;5024052;28;19928;-92
2023/04/26 11:33:33;;;;;;;;;;;;;;;;;;5014183;28;19926;-90
2023/04/26 11:35:58;;;;;;;;;;;;;;;;;;5006108;28;20366;-91
2023/04/26 11:38:24;;;;;;;;;;;;;;;;;;5008258;28;19971;-93
2023/04/26 11:40:50;;;;;;;;;;;;;;;;;;5014219;28;19926;-93
2023/04/26 11:43:16;;;;;;;;;;;;;;;;;;5013789;28;20407;-92
2023/04/26 11:45:42;;;;;;;;;;;;;;;;;;5011667;28;19921;-91
2023/04/26 11:48:08;;;;;;;;;;;;;;;;;;5004322;28;19925;-92
2023/04/26 11:50:34;;;;;;;;;;;;;;;;;;5003853;28;19924;-92
2023/04/26 11:53:00;;;;;;;;;;;;;;;;;;5012675;28;19932;-93
2023/04/26 11:55:26;;;;;;;;;;;;;;;;;;5013932;28;20011;-93
2023/04/26 11:57:52;;;;;;;;;;;;;;;;;;5000566;28;20424;-92
2023/04/26 12:00:18;;;;;;;;;;;;;;;;;;5007534;28;19941;-94
2023/04/26 12:02:45;;;;;;;;;;;;;;;;;;5006709;28;19980;-93
2023/04/26 12:05:11;;;;;;;;;;;;;;;;;;5006961;28;20431;-89
2023/04/26 12:07:37;;;;;;;;;;;;;;;;;;4992306;28;19993;-89
2023/04/26 12:10:03;;;;;;;;;;;;;;;;;;4991582;28;19968;-89
2023/04/26 12:12:29;;;;;;;;;;;;;;;;;;4993541;28;20357;-92
2023/04/26 12:14:56;;;;;;;;;;;;;;;;;;4998092;28;19926;-91
2023/04/26 12:17:21;;;;;;;;;;;;;;;;;;4996826;28;19928;-91
2023/04/26 12:19:47;;;;;;;;;;;;;;;;;;4996487;28;19947;-91
2023/04/26 12:22:13;;;;;;;;;;;;;;;;;;4996885;28;19922;-90
2023/04/26 12:24:41;;;;;;;;;;;;;;;;;;4997270;28;19928;-91
2023/04/26 12:27:07;;;;;;;;;;;;;;;;;;4996786;28;19932;-91
2023/04/26 12:29:33;;;;;;;;;;;;;;;;;;4996552;28;20008;-91
2023/04/26 12:31:59;;;;;;;;;;;;;;;;;;5001238;28;20386;-91
2023/04/26 12:34:25;;;;;;;;;;;;;;;;;;5032826;28;20276;-91
2023/04/26 12:36:51;;;;;;;;;;;;;;;;;;5032796;28;19921;-91
2023/04/26 12:39:17;;;;;;;;;;;;;;;;;;5016273;28;19921;-91
2023/04/26 12:41:43;;;;;;;;;;;;;;;;;;5015687;28;19921;-91
2023/04/26 12:44:09;;;;;;;;;;;;;;;;;;5032389;28;20276;-90
2023/04/26 12:46:35;;;;;;;;;;;;;;;;;;5032156;28;19932;-91
2023/04/26 12:49:01;;;;;;;;;;;;;;;;;;5016077;28;19948;-91
2023/04/26 12:51:27;;;;;;;;;;;;;;;;;;5032567;28;19929;-91
2023/04/26 12:53:53;;;;;;;;;;;;;;;;;;5016098;28;19944;-91
2023/04/26 12:56:18;;;;;;;;;;;;;;;;;;5032166;28;19929;-91
2023/04/26 12:58:44;;;;;;;;;;;;;;;;;;5032268;28;19947;-92
2023/04/26 13:01:11;;;;;;;;;;;;;;;;;;5015808;28;19970;-91
2023/04/26 13:03:37;;;;;;;;;;;;;;;;;;5032558;28;19921;-91
2023/04/26 13:06:03;;;;;;;;;;;;;;;;;;5031982;28;19928;-91
2023/04/26 13:08:29;;;;;;;;;;;;;;;;;;5032249;28;20284;-91
2023/04/26 13:10:55;;;;;;;;;;;;;;;;;;5015763;28;20001;-91
2023/04/26 13:13:21;;;;;;;;;;;;;;;;;;5015392;28;20327;-91
2023/04/26 13:15:47;;;;;;;;;;;;;;;;;;5015520;28;19921;-91
2023/04/26 13:18:14;;;;;;;;;;;;;;;;;;5015104;28;19925;-90
2023/04/26 13:20:40;;;;;;;;;;;;;;;;;;5015310;28;19929;-91
2023/04/26 13:23:06;;;;;;;;;;;;;;;;;;5031690;28;20000;-91
2023/04/26 13:25:32;;;;;;;;;;;;;;;;;;5015259;28;20028;-91
2023/04/26 13:27:58;;;;;;;;;;;;;;;;;;5015143;28;19972;-91
2023/04/26 13:30:24;;;;;;;;;;;;;;;;;;5031514;28;20012;-91
2023/04/26 13:32:51;;;;;;;;;;;;;;;;;;5015012;28;19925;-92
2023/04/26 13:35:17;;;;;;;;;;;;;;;;;;5014786;28;20361;-91
2023/04/26 13:37:43;;;;;;;;;;;;;;;;;;5015090;28;19932;-91
2023/04/26 13:40:10;;;;;;;;;;;;;;;;;;5015188;28;19921;-91
2023/04/26 13:42:35;;;;;;;;;;;;;;;;;;5031411;28;20341;-91
2023/04/26 13:45:05;;;;;;;;;;;;;;;;;;5014469;28;19921;-91
2023/04/26 13:47:31;;;;;;;;;;;;;;;;;;5014591;28;20296;-91
2023/04/26 13:49:56;;;;;;;;;;;;;;;;;;5031426;28;19925;-91
2023/04/26 13:52:22;;;;;;;;;;;;;;;;;;5015239;28;19921;-90
2023/04/26 13:54:49;;;;;;;;;;;;;;;;;;5014995;28;19927;-91
2023/04/26 13:57:15;;;;;;;;;;;;;;;;;;5015370;28;20229;-90
2023/04/26 13:59:41;;;;;;;;;;;;;;;;;;5015149;28;19928;-92
2023/04/26 14:02:07;;;;;;;;;;;;;;;;;;5031437;28;19921;-91
2023/04/26 14:04:33;;;;;;;;;;;;;;;;;;5015182;28;19975;-91
2023/04/26 14:06:59;;;;;;;;;;;;;;;;;;5014667;28;19925;-91
2023/04/26 14:09:25;;;;;;;;;;;;;;;;;;5014807;28;19921;-91
2023/04/26 14:11:51;;;;;;;;;;;;;;;;;;5014663;28;20023;-91
2023/04/26 14:14:17;;;;;;;;;;;;;;;;;;5031490;28;19921;-91
2023/04/26 14:16:43;;;;;;;;;;;;;;;;;;5014929;28;19921;-91
2023/04/26 14:19:09;;;;;;;;;;;;;;;;;;5031211;28;19928;-92
2023/04/26 14:21:35;;;;;;;;;;;;;;;;;;5014859;28;20296;-91
2023/04/26 14:24:02;;;;;;;;;;;;;;;;;;5031530;28;20002;-91
2023/04/26 14:26:28;;;;;;;;;;;;;;;;;;5014313;28;20356;-91
2023/04/26 14:28:54;;;;;;;;;;;;;;;;;;5014815;28;19921;-92
2023/04/26 14:31:20;;;;;;;;;;;;;;;;;;5014429;28;19933;-91
2023/04/26 14:33:46;;;;;;;;;;;;;;;;;;5014737;28;20040;-91
2023/04/26 14:36:12;;;;;;;;;;;;;;;;;;5014899;28;19932;-91
2023/04/26 14:38:38;;;;;;;;;;;;;;;;;;5031224;28;20492;-91
2023/04/26 14:41:03;;;;;;;;;;;;;;;;;;5014944;28;20399;-91
2023/04/26 14:43:29;;;;;;;;;;;;;;;;;;5014860;28;19928;-91
2023/04/26 14:45:55;;;;;;;;;;;;;;;;;;5014710;28;19971;-91
2023/04/26 14:48:21;;;;;;;;;;;;;;;;;;5030989;28;19925;-91
2023/04/26 14:50:47;;;;;;;;;;;;;;;;;;5014476;28;20319;-91
2023/04/26 14:53:13;;;;;;;;;;;;;;;;;;5014238;28;19921;-91
2023/04/26 14:55:39;;;;;;;;;;;;;;;;;;5014222;28;19928;-91
2023/04/26 14:58:05;;;;;;;;;;;;;;;;;;5015934;28;19939;-91
2023/04/26 15:00:31;;;;;;;;;;;;;;;;;;5034422;28;20380;-91
2023/04/26 15:02:58;;;;;;;;;;;;;;;;;;5018205;28;20344;-92
2023/04/26 15:05:23;;;;;;;;;;;;;;;;;;5017956;28;19925;-91
2023/04/26 15:07:50;;;;;;;;;;;;;;;;;;5034405;28;19925;-91
2023/04/26 15:10:16;;;;;;;;;;;;;;;;;;5034986;28;19929;-92
2023/04/26 15:12:42;;;;;;;;;;;;;;;;;;5019249;28;19921;-91
2023/04/26 15:15:08;;;;;;;;;;;;;;;;;;5034138;28;20388;-91
2023/04/26 15:17:34;;;;;;;;;;;;;;;;;;5034449;28;19921;-91
2023/04/26 15:20:00;;;;;;;;;;;;;;;;;;5017940;28;20396;-91
2023/04/26 15:22:26;;;;;;;;;;;;;;;;;;5017762;28;19921;-91
2023/04/26 15:24:52;;;;;;;;;;;;;;;;;;5017762;28;19921;-91
2023/04/26 15:27:18;;;;;;;;;;;;;;;;;;5017499;28;19925;-91
2023/04/26 15:29:44;;;;;;;;;;;;;;;;;;5017216;28;19951;-91
2023/04/26 15:32:10;;;;;;;;;;;;;;;;;;5033792;28;19972;-91
2023/04/26 15:34:36;;;;;;;;;;;;;;;;;;5017712;28;19921;-91
2023/04/26 15:37:02;;;;;;;;;;;;;;;;;;5017167;28;20361;-91
2023/04/26 15:39:28;;;;;;;;;;;;;;;;;;5033548;28;19921;-91
2023/04/26 15:41:54;;;;;;;;;;;;;;;;;;5034017;28;19925;-91
2023/04/26 15:44:20;;;;;;;;;;;;;;;;;;5017299;28;19940;-91
2023/04/26 15:46:46;;;;;;;;;;;;;;;;;;5017180;28;19932;-91
2023/04/26 15:49:12;;;;;;;;;;;;;;;;;;5017601;28;19925;-91
2023/04/26 15:51:38;;;;;;;;;;;;;;;;;;5017362;28;19929;-91
2023/04/26 15:54:04;;;;;;;;;;;;;;;;;;5017263;28;19940;-92
2023/04/26 15:56:30;;;;;;;;;;;;;;;;;;5016929;28;19936;-91
2023/04/26 15:58:56;;;;;;;;;;;;;;;;;;5016676;28;19989;-91
2023/04/26 16:01:22;;;;;;;;;;;;;;;;;;5033538;28;19925;-91
2023/04/26 16:03:48;;;;;;;;;;;;;;;;;;5016943;28;19925;-91
2023/04/26 16:06:14;;;;;;;;;;;;;;;;;;5033315;28;19925;-91
2023/04/26 16:08:40;;;;;;;;;;;;;;;;;;5016359;28;19928;-92
2023/04/26 16:11:06;;;;;;;;;;;;;;;;;;5016739;28;19921;-91
2023/04/26 16:13:33;;;;;;;;;;;;;;;;;;5033188;28;19970;-91
2023/04/26 16:15:58;;;;;;;;;;;;;;;;;;5016961;28;20012;-91
2023/04/26 16:18:25;;;;;;;;;;;;;;;;;;5017170;28;20022;-91
2023/04/26 16:20:51;;;;;;;;;;;;;;;;;;5016776;28;20116;-91
2023/04/26 16:23:17;;;;;;;;;;;;;;;;;;5016436;28;20080;-91
2023/04/26 16:25:43;;;;;;;;;;;;;;;;;;5016422;28;20112;-91
2023/04/26 16:28:08;;;;;;;;;;;;;;;;;;5016219;28;19931;-91
2023/04/26 16:30:34;;;;;;;;;;;;;;;;;;5016205;28;20296;-91
2023/04/26 16:33:01;;;;;;;;;;;;;;;;;;5016198;28;19932;-91
2023/04/26 16:35:26;;;;;;;;;;;;;;;;;;5016456;28;19929;-91
2023/04/26 16:37:52;;;;;;;;;;;;;;;;;;5032446;28;19921;-91
2023/04/26 16:40:18;;;;;;;;;;;;;;;;;;5016121;28;19928;-91
2023/04/26 16:42:44;;;;;;;;;;;;;;;;;;5016005;28;20281;-91
2023/04/26 16:45:13;;;;;;;;;;;;;;;;;;5032767;28;20391;-91
2023/04/26 16:47:40;;;;;;;;;;;;;;;;;;5015742;28;19929;-92
2023/04/26 16:50:06;;;;;;;;;;;;;;;;;;5016190;28;19921;-91
2023/04/26 16:52:32;;;;;;;;;;;;;;;;;;5015936;28;19921;-91
2023/04/26 16:54:58;;;;;;;;;;;;;;;;;;5016202;28;20265;-91
2023/04/26 16:57:24;;;;;;;;;;;;;;;;;;5015688;28;19924;-91
2023/04/26 16:59:50;;;;;;;;;;;;;;;;;;5032484;28;19921;-91
2023/04/26 17:02:16;;;;;;;;;;;;;;;;;;5016154;28;20009;-91
2023/04/26 17:04:42;;;;;;;;;;;;;;;;;;5032345;28;19921;-91
2023/04/26 17:07:08;;;;;;;;;;;;;;;;;;5016045;28;19932;-91
2023/04/26 17:09:34;;;;;;;;;;;;;;;;;;5015663;28;20391;-91
2023/04/26 17:12:01;;;;;;;;;;;;;;;;;;5016213;28;19921;-91
2023/04/26 17:14:27;;;;;;;;;;;;;;;;;;5016078;28;20032;-91
2023/04/26 17:16:53;;;;;;;;;;;;;;;;;;5032503;28;19961;-91
2023/04/26 17:19:19;;;;;;;;;;;;;;;;;;5015831;28;20345;-91
2023/04/26 17:21:45;;;;;;;;;;;;;;;;;;5014835;28;19921;-91
2023/04/26 17:24:11;;;;;;;;;;;;;;;;;;5032306;28;19921;-91
2023/04/26 17:26:37;;;;;;;;;;;;;;;;;;5015277;28;19948;-91
2023/04/26 17:29:03;;;;;;;;;;;;;;;;;;5015818;28;19921;-91
2023/04/26 17:31:29;;;;;;;;;;;;;;;;;;5031833;28;19921;-91
2023/04/26 17:33:55;;;;;;;;;;;;;;;;;;5031871;28;19975;-91
2023/04/26 17:36:21;;;;;;;;;;;;;;;;;;5015533;28;19994;-91
2023/04/26 17:38:47;;;;;;;;;;;;;;;;;;5015145;28;20380;-91
2023/04/26 17:41:13;;;;;;;;;;;;;;;;;;5031680;28;19951;-91
2023/04/26 17:43:39;;;;;;;;;;;;;;;;;;5014881;28;19921;-91
2023/04/26 17:46:05;;;;;;;;;;;;;;;;;;5014845;28;19984;-91
2023/04/26 17:48:31;;;;;;;;;;;;;;;;;;5015092;28;19925;-91
2023/04/26 17:50:57;;;;;;;;;;;;;;;;;;5015237;28;19982;-91
2023/04/26 17:53:23;;;;;;;;;;;;;;;;;;5031616;28;19921;-91
2023/04/26 17:55:49;;;;;;;;;;;;;;;;;;5014811;28;20376;-91
2023/04/26 17:58:15;;;;;;;;;;;;;;;;;;5015072;28;19931;-91
2023/04/26 18:00:41;;;;;;;;;;;;;;;;;;5031345;28;19964;-91
2023/04/26 18:03:10;;;;;;;;;;;;;;;;;;5030834;28;20397;-91
2023/04/26 18:05:36;;;;;;;;;;;;;;;;;;5014852;28;19996;-91
2023/04/26 18:08:03;;;;;;;;;;;;;;;;;;5014479;28;19936;-91
2023/04/26 18:10:29;;;;;;;;;;;;;;;;;;5014629;28;19922;-90
2023/04/26 18:12:55;;;;;;;;;;;;;;;;;;5015130;28;19932;-91
2023/04/26 18:15:21;;;;;;;;;;;;;;;;;;5014750;28;19993;-91
2023/04/26 18:17:47;;;;;;;;;;;;;;;;;;5014976;28;19955;-91
2023/04/26 18:20:13;;;;;;;;;;;;;;;;;;5014897;28;19928;-91
2023/04/26 18:22:38;;;;;;;;;;;;;;;;;;5014582;28;19921;-91
2023/04/26 18:25:04;;;;;;;;;;;;;;;;;;5031247;28;19925;-90
2023/04/26 18:27:30;;;;;;;;;;;;;;;;;;5014683;28;20373;-90
2023/04/26 18:29:56;;;;;;;;;;;;;;;;;;5031336;28;19928;-91
2023/04/26 18:32:22;;;;;;;;;;;;;;;;;;5016349;28;19925;-91
2023/04/26 18:34:48;;;;;;;;;;;;;;;;;;5018500;28;20345;-91
2023/04/26 18:37:14;;;;;;;;;;;;;;;;;;5018527;28;19925;-91
2023/04/26 18:39:40;;;;;;;;;;;;;;;;;;5018513;28;19921;-91
2023/04/26 18:42:06;;;;;;;;;;;;;;;;;;5034969;28;19921;-91
2023/04/26 18:44:32;;;;;;;;;;;;;;;;;;5034989;28;19960;-91
2023/04/26 18:46:58;;;;;;;;;;;;;;;;;;5018352;28;20422;-91
2023/04/26 18:49:26;;;;;;;;;;;;;;;;;;5034532;28;19924;-91
2023/04/26 18:51:51;;;;;;;;;;;;;;;;;;5018185;28;20479;-90
2023/04/26 18:54:17;;;;;;;;;;;;;;;;;;5018427;28;19987;-91
2023/04/26 18:56:43;;;;;;;;;;;;;;;;;;5018230;28;19935;-91
2023/04/26 18:59:09;;;;;;;;;;;;;;;;;;5018153;28;19921;-90
2023/04/26 19:01:36;;;;;;;;;;;;;;;;;;5034587;28;19922;-91
2023/04/26 19:04:02;;;;;;;;;;;;;;;;;;5018014;28;20292;-91
2023/04/26 19:06:28;;;;;;;;;;;;;;;;;;5017968;28;19936;-90
2023/04/26 19:08:54;;;;;;;;;;;;;;;;;;5018031;28;19921;-91
2023/04/26 19:11:20;;;;;;;;;;;;;;;;;;5034410;28;20291;-91
2023/04/26 19:13:46;;;;;;;;;;;;;;;;;;5017447;28;20423;-91
2023/04/26 19:16:12;;;;;;;;;;;;;;;;;;5034229;28;19927;-91
2023/04/26 19:18:42;;;;;;;;;;;;;;;;;;5017926;28;19921;-90
2023/04/26 19:21:08;;;;;;;;;;;;;;;;;;5017432;28;19921;-89
2023/04/26 19:23:34;;;;;;;;;;;;;;;;;;5017283;28;19924;-92
2023/04/26 19:26:01;;;;;;;;;;;;;;;;;;5018066;28;20019;-90
2023/04/26 19:50:13;;;;;;;;;;;;;;;;;;5900444;23;19929;-92
2023/04/26 19:53:00;;;;;;;;;;;;;;;;;;5006647;28;19939;-94
2023/04/26 19:55:28;;;;;;;;;;;;;;;;;;5017168;28;19964;-94
2023/04/26 19:57:54;;;;;;;;;;;;;;;;;;5001665;28;20043;-95
2023/04/26 20:00:22;;;;;;;;;;;;;;;;;;5001641;28;19972;-94
2023/04/26 20:02:48;;;;;;;;;;;;;;;;;;5001647;28;19925;-94
2023/04/26 20:05:14;;;;;;;;;;;;;;;;;;5004263;28;20357;-94
2023/04/26 20:07:40;;;;;;;;;;;;;;;;;;5014408;28;20331;-90
2023/04/26 20:10:06;;;;;;;;;;;;;;;;;;5017888;28;19944;-92
2023/04/26 20:12:32;;;;;;;;;;;;;;;;;;5001751;28;20293;-92
2023/04/26 20:14:58;;;;;;;;;;;;;;;;;;5001107;28;20012;-93
2023/04/26 20:17:24;;;;;;;;;;;;;;;;;;5017160;28;19921;-91
2023/04/26 20:19:53;;;;;;;;;;;;;;;;;;5017980;28;19960;-92
2023/04/26 20:22:19;;;;;;;;;;;;;;;;;;5017610;28;19921;-92
2023/04/26 20:24:45;;;;;;;;;;;;;;;;;;5001016;28;19924;-94
2023/04/26 20:27:11;;;;;;;;;;;;;;;;;;5047726;23;19925;-90
2023/04/26 20:29:37;;;;;;;;;;;;;;;;;;4999510;28;19928;-88
2023/04/26 20:32:03;;;;;;;;;;;;;;;;;;5000759;28;19939;-91
2023/04/26 20:34:29;;;;;;;;;;;;;;;;;;5016997;28;19921;-92
2023/04/26 20:36:55;;;;;;;;;;;;;;;;;;5000674;28;19921;-92
2023/04/26 20:39:21;;;;;;;;;;;;;;;;;;5000369;28;19921;-91
2023/04/26 20:41:47;;;;;;;;;;;;;;;;;;5002248;28;19921;-92
2023/04/26 20:44:14;;;;;;;;;;;;;;;;;;5016419;28;19972;-92
2023/04/26 20:46:45;;;;;;;;;;;;;;;;;;5000969;28;19925;-96
2023/04/26 20:49:20;;;;;;;;;;;;;;;;;;5036488;28;19921;-94
2023/04/26 20:51:46;;;;;;;;;;;;;;;;;;5002504;28;19970;-94
2023/04/26 20:54:15;;;;;;;;;;;;;;;;;;5001066;28;19921;-93
2023/04/26 20:56:41;;;;;;;;;;;;;;;;;;5000034;28;19929;-94
2023/04/26 20:59:07;;;;;;;;;;;;;;;;;;5001013;28;20340;-93
2023/04/26 21:01:36;;;;;;;;;;;;;;;;;;5002658;28;19989;-93
2023/04/26 21:04:02;;;;;;;;;;;;;;;;;;5000915;28;19932;-91
2023/04/26 21:06:28;;;;;;;;;;;;;;;;;;5017380;28;19975;-94
2023/04/26 21:08:54;;;;;;;;;;;;;;;;;;5000487;28;19929;-95
2023/04/26 21:11:20;;;;;;;;;;;;;;;;;;5016532;28;19964;-93
2023/04/26 21:13:46;;;;;;;;;;;;;;;;;;5016148;28;19925;-92
2023/04/26 21:16:12;;;;;;;;;;;;;;;;;;5016305;28;20428;-93
2023/04/26 21:18:38;;;;;;;;;;;;;;;;;;5000307;28;19971;-93
2023/04/26 21:21:04;;;;;;;;;;;;;;;;;;5016042;28;19936;-94
2023/04/26 21:23:30;;;;;;;;;;;;;;;;;;4999735;28;19921;-95
2023/04/26 21:25:56;;;;;;;;;;;;;;;;;;5002650;28;20009;-94
2023/04/26 21:28:25;;;;;;;;;;;;;;;;;;5020770;28;19925;-95
2023/04/26 21:30:51;;;;;;;;;;;;;;;;;;5002336;28;20276;-96
2023/04/26 21:33:17;;;;;;;;;;;;;;;;;;5001852;28;20436;-94
2023/04/26 21:35:43;;;;;;;;;;;;;;;;;;5018347;28;19921;-95
2023/04/26 21:38:09;;;;;;;;;;;;;;;;;;5001775;28;19943;-92
2023/04/26 21:40:38;;;;;;;;;;;;;;;;;;5001588;28;19920;-95
2023/04/26 21:43:04;;;;;;;;;;;;;;;;;;5018273;28;19925;-94
2023/04/26 21:45:30;;;;;;;;;;;;;;;;;;5000563;28;19928;-95
2023/04/26 21:47:56;;;;;;;;;;;;;;;;;;5000091;28;20008;-93
2023/04/26 21:50:22;;;;;;;;;;;;;;;;;;5017551;28;19921;-95
2023/04/26 21:52:48;;;;;;;;;;;;;;;;;;5016815;28;20403;-95